Time;durP1;ratioP1;P1;durP2;ratioP2;P2;SDS_P1;SDS_P2;PMS_P1;PMS_P2;Temp;Humidity;BMP_temperature;BMP_pressure;BME280_temperature;BME280_humidity;BME280_pressure;Samples;Min_cycle;Max_cycle;Signal;HPM_P1;HPM_P2
2022/12/22 03:28:20;;;;;;;4.63;1.30;;;;;;;;;;5001474;28;20053;-63
2022/12/22 03:30:56;;;;;;;3.30;1.20;;;;;;;;;;4986011;28;20057;-61
2022/12/22 03:33:22;;;;;;;5.30;1.45;;;;;;;;;;4984476;28;20108;-62
2022/12/22 03:35:48;;;;;;;5.22;1.67;;;;;;;;;;5003755;28;20058;-61
2022/12/22 03:38:14;;;;;;;4.00;1.67;;;;;;;;;;5003977;28;20042;-62
2022/12/22 03:40:40;;;;;;;4.30;1.40;;;;;;;;;;5003689;28;20056;-62
2022/12/22 03:49:08;;;;;;;5.55;1.52;;;;;;;;;;5002545;28;20144;-61
2022/12/22 03:51:31;;;;;;;3.15;1.30;;;;;;;;;;5002234;28;20045;-61
2022/12/22 03:53:57;;;;;;;5.30;1.60;;;;;;;;;;5000511;28;20417;-61
2022/12/22 03:56:24;;;;;;;4.82;1.40;;;;;;;;;;4997634;28;20056;-62
2022/12/22 03:58:50;;;;;;;4.35;1.30;;;;;;;;;;4996556;28;20523;-60
2022/12/22 04:01:16;;;;;;;4.32;1.30;;;;;;;;;;5003665;28;20049;-64
2022/12/22 04:03:42;;;;;;;5.82;1.73;;;;;;;;;;5005124;28;20053;-62
2022/12/22 04:06:08;;;;;;;4.15;1.67;;;;;;;;;;5005179;28;20398;-62
2022/12/22 04:08:34;;;;;;;2.15;1.08;;;;;;;;;;5003242;28;20045;-61
2022/12/22 04:13:44;;;;;;;3.63;1.40;;;;;;;;;;5004619;28;20058;-60
2022/12/22 04:16:10;;;;;;;3.72;1.27;;;;;;;;;;5006764;28;20045;-62
2022/12/22 04:18:36;;;;;;;5.38;1.30;;;;;;;;;;5003534;28;20456;-61
2022/12/22 04:21:02;;;;;;;2.58;1.20;;;;;;;;;;5004235;28;20050;-61
2022/12/22 04:23:28;;;;;;;3.28;1.40;;;;;;;;;;4998795;28;20050;-61
2022/12/22 04:25:54;;;;;;;5.55;1.35;;;;;;;;;;5004789;28;20577;-61
2022/12/22 04:28:20;;;;;;;5.05;1.58;;;;;;;;;;4997783;28;20050;-63
2022/12/22 04:30:51;;;;;;;4.95;1.17;;;;;;;;;;5005248;28;20050;-62
2022/12/22 04:33:17;;;;;;;3.17;1.35;;;;;;;;;;5001065;28;20069;-61
2022/12/22 04:35:43;;;;;;;3.88;1.40;;;;;;;;;;4999703;28;20049;-62
2022/12/22 04:38:09;;;;;;;8.68;1.60;;;;;;;;;;4999167;28;20046;-63
2022/12/22 04:40:36;;;;;;;3.15;1.75;;;;;;;;;;4999412;28;20089;-62
2022/12/22 04:43:02;;;;;;;2.65;1.23;;;;;;;;;;4996123;28;20058;-62
2022/12/22 04:45:28;;;;;;;6.63;1.55;;;;;;;;;;4990267;28;20104;-66
2022/12/22 04:47:54;;;;;;;4.60;1.35;;;;;;;;;;4996110;28;20054;-62
2022/12/22 04:50:19;;;;;;;5.97;1.60;;;;;;;;;;5003221;28;20046;-61
2022/12/22 04:52:46;;;;;;;6.78;2.17;;;;;;;;;;4996535;28;20053;-61
2022/12/22 04:55:11;;;;;;;3.15;1.35;;;;;;;;;;5001158;28;20103;-62
2022/12/22 04:57:37;;;;;;;5.45;1.73;;;;;;;;;;5000761;28;20054;-62
2022/12/22 05:00:04;;;;;;;7.20;1.83;;;;;;;;;;5000729;28;20053;-62
2022/12/22 05:02:30;;;;;;;5.38;1.65;;;;;;;;;;4994212;28;20108;-62
2022/12/22 05:04:56;;;;;;;5.53;1.60;;;;;;;;;;5003914;28;20054;-61
2022/12/22 05:07:22;;;;;;;4.68;1.65;;;;;;;;;;4999012;28;20108;-61
2022/12/22 05:09:48;;;;;;;7.75;1.40;;;;;;;;;;4991785;28;20050;-61
2022/12/22 05:14:59;;;;;;;3.10;1.40;;;;;;;;;;4998651;28;20075;-63
2022/12/22 05:17:25;;;;;;;4.07;1.40;;;;;;;;;;5001012;28;20047;-61
2022/12/22 05:19:50;;;;;;;5.20;1.83;;;;;;;;;;5002203;28;20046;-62
2022/12/22 05:22:17;;;;;;;3.60;1.50;;;;;;;;;;4998300;28;20777;-61
2022/12/22 05:24:43;;;;;;;5.70;1.50;;;;;;;;;;5003318;28;20061;-60
2022/12/22 05:27:10;;;;;;;4.53;1.40;;;;;;;;;;5003108;28;20900;-61
2022/12/22 05:29:36;;;;;;;8.43;1.70;;;;;;;;;;5001051;28;20060;-60
2022/12/22 05:32:02;;;;;;;7.72;2.30;;;;;;;;;;5000662;28;20050;-61
2022/12/22 05:34:28;;;;;;;4.20;1.60;;;;;;;;;;5005400;28;20058;-61
2022/12/22 05:36:54;;;;;;;4.38;1.33;;;;;;;;;;5005826;28;20061;-59
2022/12/22 05:39:20;;;;;;;6.05;1.58;;;;;;;;;;5007995;28;20042;-63
2022/12/22 05:41:46;;;;;;;4.70;1.60;;;;;;;;;;5007225;28;20046;-66
2022/12/22 05:44:12;;;;;;;3.78;1.40;;;;;;;;;;5002074;28;20111;-62
2022/12/22 05:46:38;;;;;;;6.07;1.60;;;;;;;;;;5005518;28;20128;-63
2022/12/22 05:49:04;;;;;;;4.60;1.75;;;;;;;;;;5004605;28;20472;-62
2022/12/22 05:51:30;;;;;;;8.05;1.60;;;;;;;;;;4997924;28;20673;-62
2022/12/22 05:53:55;;;;;;;6.15;1.67;;;;;;;;;;5003775;28;20092;-64
2022/12/22 05:56:22;;;;;;;5.78;1.50;;;;;;;;;;4995292;28;20060;-62
2022/12/22 05:58:47;;;;;;;3.97;1.60;;;;;;;;;;4995764;28;20822;-61
2022/12/22 06:01:13;;;;;;;3.53;1.45;;;;;;;;;;5002275;28;20111;-60
2022/12/22 06:03:39;;;;;;;2.75;1.50;;;;;;;;;;5001682;28;20048;-63
2022/12/22 06:06:05;;;;;;;4.88;1.33;;;;;;;;;;5002993;28;20085;-63
2022/12/22 06:08:31;;;;;;;6.80;1.52;;;;;;;;;;5000911;28;20520;-62
2022/12/22 06:10:58;;;;;;;3.33;1.80;;;;;;;;;;5001623;28;20053;-62
2022/12/22 06:13:24;;;;;;;5.03;1.60;;;;;;;;;;4995948;28;20052;-62
2022/12/22 06:15:51;;;;;;;4.75;1.67;;;;;;;;;;4996010;28;20501;-61
2022/12/22 06:18:16;;;;;;;7.28;1.38;;;;;;;;;;5001627;28;20045;-61
2022/12/22 06:20:45;;;;;;;3.15;1.40;;;;;;;;;;5003095;28;20152;-61
2022/12/22 06:23:11;;;;;;;4.72;1.52;;;;;;;;;;5002209;28;20180;-62
2022/12/22 06:25:37;;;;;;;6.05;1.65;;;;;;;;;;5002464;28;20065;-60
2022/12/22 06:28:03;;;;;;;6.85;1.55;;;;;;;;;;4999477;28;20049;-63
2022/12/22 06:30:31;;;;;;;4.25;1.55;;;;;;;;;;4996308;28;20050;-63
2022/12/22 06:32:56;;;;;;;5.88;1.75;;;;;;;;;;4998002;28;20065;-63
2022/12/22 06:35:23;;;;;;;7.70;2.08;;;;;;;;;;4997057;28;20052;-63
2022/12/22 06:37:49;;;;;;;4.22;1.65;;;;;;;;;;5003419;28;20046;-63
2022/12/22 06:40:15;;;;;;;4.63;1.70;;;;;;;;;;4998366;28;20042;-69
2022/12/22 06:45:25;;;;;;;4.88;1.77;;;;;;;;;;5001137;28;20042;-61
2022/12/22 06:47:51;;;;;;;8.10;2.70;;;;;;;;;;4999803;28;20046;-61
2022/12/22 06:50:17;;;;;;;8.35;1.67;;;;;;;;;;4998226;28;20054;-64
2022/12/22 06:52:43;;;;;;;7.32;1.67;;;;;;;;;;4976697;28;20045;-64
2022/12/22 06:55:09;;;;;;;17.88;2.00;;;;;;;;;;4989562;28;20696;-62
2022/12/22 06:57:35;;;;;;;7.90;1.80;;;;;;;;;;4995614;28;20152;-62
2022/12/22 07:00:02;;;;;;;6.93;2.08;;;;;;;;;;4994899;28;20049;-66
2022/12/22 07:02:28;;;;;;;6.65;2.13;;;;;;;;;;4993880;28;20177;-63
2022/12/22 07:04:54;;;;;;;10.95;2.90;;;;;;;;;;4993880;28;20121;-61
2022/12/22 07:07:20;;;;;;;9.45;2.38;;;;;;;;;;4993201;28;20137;-65
2022/12/22 07:09:46;;;;;;;7.93;2.40;;;;;;;;;;4978154;28;20049;-68
2022/12/22 07:12:12;;;;;;;5.07;1.90;;;;;;;;;;5000220;28;20133;-62
2022/12/22 07:14:38;;;;;;;6.75;2.08;;;;;;;;;;5001916;28;20042;-60
2022/12/22 07:17:04;;;;;;;8.60;2.22;;;;;;;;;;4997893;28;20038;-63
2022/12/22 07:19:31;;;;;;;11.10;2.53;;;;;;;;;;4983734;28;20045;-63
2022/12/22 07:21:56;;;;;;;6.25;1.67;;;;;;;;;;5001304;28;20484;-61
2022/12/22 07:24:24;;;;;;;7.28;2.00;;;;;;;;;;5000699;28;20111;-62
2022/12/22 07:26:50;;;;;;;9.60;1.67;;;;;;;;;;5002021;28;20064;-66
2022/12/22 07:29:16;;;;;;;7.90;1.80;;;;;;;;;;4997232;28;20554;-65
2022/12/22 07:31:42;;;;;;;9.68;2.13;;;;;;;;;;4990041;28;20050;-62
2022/12/22 07:34:08;;;;;;;6.88;1.85;;;;;;;;;;4997968;28;20057;-63
2022/12/22 07:36:34;;;;;;;7.22;1.73;;;;;;;;;;4999987;28;20049;-65
2022/12/22 07:39:01;;;;;;;10.93;3.65;;;;;;;;;;4979710;28;20042;-62
2022/12/22 07:44:11;;;;;;;;;;;;;;;;;;4996339;28;20472;-62
2022/12/22 07:46:38;;;;;;;13.90;2.35;;;;;;;;;;4999439;28;19934;-65
2022/12/22 07:51:50;;;;;;;4.95;2.13;;;;;;;;;;4996376;28;20069;-61
2022/12/22 07:54:17;;;;;;;7.38;1.90;;;;;;;;;;5000985;28;20046;-61
2022/12/22 07:56:44;;;;;;;8.90;2.00;;;;;;;;;;5000135;28;20053;-61
2022/12/22 07:59:11;;;;;;;7.38;2.40;;;;;;;;;;4987329;28;20048;-62
2022/12/22 08:01:38;;;;;;;8.40;2.63;;;;;;;;;;4998994;28;20061;-62
2022/12/22 08:04:04;;;;;;;12.38;3.05;;;;;;;;;;4999751;28;20104;-61
2022/12/22 08:06:33;;;;;;;10.65;2.72;;;;;;;;;;5001174;28;20054;-63
2022/12/22 08:09:00;;;;;;;10.60;2.78;;;;;;;;;;4990822;28;20050;-60
2022/12/22 08:11:26;;;;;;;9.15;2.42;;;;;;;;;;4989245;28;20050;-61
2022/12/22 08:13:52;;;;;;;11.98;2.38;;;;;;;;;;4990141;28;20041;-62
2022/12/22 08:16:19;;;;;;;10.50;2.10;;;;;;;;;;4997013;28;20038;-63
2022/12/22 08:18:45;;;;;;;6.40;2.38;;;;;;;;;;4997697;28;20049;-62
2022/12/22 08:21:11;;;;;;;6.32;2.08;;;;;;;;;;4980528;28;20500;-63
2022/12/22 08:23:37;;;;;;;11.38;2.20;;;;;;;;;;4997449;28;20057;-66
2022/12/22 08:26:03;;;;;;;6.35;1.88;;;;;;;;;;4995368;28;20050;-63
2022/12/22 08:28:32;;;;;;;8.13;2.40;;;;;;;;;;4989799;28;20104;-62
2022/12/22 08:31:00;;;;;;;13.70;2.28;;;;;;;;;;4997157;28;20053;-66
2022/12/22 08:33:27;;;;;;;10.05;3.20;;;;;;;;;;4974179;28;20050;-61
2022/12/22 08:35:55;;;;;;;6.50;2.60;;;;;;;;;;5004548;28;20338;-63
2022/12/22 08:38:22;;;;;;;7.35;2.38;;;;;;;;;;4998785;28;20124;-64
2022/12/22 08:40:48;;;;;;;7.65;2.40;;;;;;;;;;4994026;28;20058;-65
2022/12/22 08:43:16;;;;;;;12.77;3.13;;;;;;;;;;4996495;28;20049;-63
2022/12/22 08:45:42;;;;;;;10.23;2.70;;;;;;;;;;5003072;28;20543;-63
2022/12/22 08:48:10;;;;;;;6.63;2.50;;;;;;;;;;5004766;28;20056;-64
2022/12/22 08:50:36;;;;;;;7.15;2.63;;;;;;;;;;5004703;28;20313;-65
2022/12/22 08:53:04;;;;;;;6.13;2.60;;;;;;;;;;4986435;28;20719;-65
2022/12/22 08:55:30;;;;;;;6.85;2.50;;;;;;;;;;4996972;28;20073;-64
2022/12/22 08:57:56;;;;;;;9.60;3.03;;;;;;;;;;4998372;28;20061;-67
2022/12/22 09:00:22;;;;;;;8.57;3.40;;;;;;;;;;5003135;28;20103;-68
2022/12/22 09:02:48;;;;;;;12.95;3.88;;;;;;;;;;4994452;28;20061;-64
2022/12/22 09:05:14;;;;;;;10.43;3.38;;;;;;;;;;4999305;28;20057;-63
2022/12/22 09:07:40;;;;;;;8.80;3.67;;;;;;;;;;5001226;28;20053;-64
2022/12/22 09:10:08;;;;;;;9.70;3.50;;;;;;;;;;4996405;28;20073;-62
2022/12/22 09:12:34;;;;;;;12.00;3.28;;;;;;;;;;4988978;28;20057;-63
2022/12/22 09:15:00;;;;;;;10.90;2.40;;;;;;;;;;4997081;28;20054;-63
2022/12/22 09:17:26;;;;;;;10.13;2.67;;;;;;;;;;4997223;28;20125;-63
2022/12/22 09:19:52;;;;;;;11.02;3.55;;;;;;;;;;4994553;28;20307;-62
2022/12/22 09:22:18;;;;;;;6.32;2.20;;;;;;;;;;4996164;28;20049;-62
2022/12/22 09:24:44;;;;;;;6.70;2.50;;;;;;;;;;4993647;28;20057;-63
2022/12/22 09:27:10;;;;;;;9.85;2.25;;;;;;;;;;4977017;28;20038;-65
2022/12/22 09:29:36;;;;;;;7.75;2.42;;;;;;;;;;5005185;28;20512;-63
2022/12/22 09:32:03;;;;;;;7.97;2.53;;;;;;;;;;5000677;28;20074;-64
2022/12/22 09:34:29;;;;;;;8.38;2.80;;;;;;;;;;4997637;28;20041;-63
2022/12/22 09:36:55;;;;;;;13.90;2.60;;;;;;;;;;4994078;28;20057;-65
2022/12/22 09:39:21;;;;;;;8.70;2.50;;;;;;;;;;4999901;28;20045;-63
2022/12/22 09:41:53;;;;;;;7.18;2.65;;;;;;;;;;4999310;28;20142;-63
2022/12/22 09:44:24;;;;;;;9.15;2.55;;;;;;;;;;5000635;28;20061;-65
2022/12/22 09:46:53;;;;;;;6.85;2.50;;;;;;;;;;4998126;28;20461;-65
2022/12/22 09:49:19;;;;;;;14.57;2.90;;;;;;;;;;5002638;28;20116;-65
2022/12/22 09:51:49;;;;;;;8.68;2.80;;;;;;;;;;5001591;28;20046;-63
2022/12/22 09:54:15;;;;;;;5.65;2.38;;;;;;;;;;5000425;28;20417;-64
2022/12/22 09:56:42;;;;;;;11.13;3.00;;;;;;;;;;4996961;28;20323;-64
2022/12/22 09:59:13;;;;;;;7.47;2.45;;;;;;;;;;5001334;28;20050;-61
2022/12/22 10:02:11;;;;;;;9.60;2.72;;;;;;;;;;5002149;28;20125;-62
2022/12/22 10:05:12;;;;;;;8.95;2.83;;;;;;;;;;4994748;28;20054;-64
2022/12/22 10:07:41;;;;;;;14.07;3.33;;;;;;;;;;4995257;28;20061;-63
2022/12/22 10:10:24;;;;;;;7.32;2.60;;;;;;;;;;4985778;28;20507;-66
2022/12/22 10:12:53;;;;;;;11.57;2.78;;;;;;;;;;4992215;28;20050;-63
2022/12/22 10:15:19;;;;;;;6.78;2.78;;;;;;;;;;4997208;28;20096;-68
2022/12/22 10:17:48;;;;;;;9.60;2.65;;;;;;;;;;4995488;28;20054;-65
2022/12/22 10:20:24;;;;;;;9.90;2.72;;;;;;;;;;4993127;28;20317;-67
2022/12/22 10:22:54;;;;;;;8.95;2.67;;;;;;;;;;5001409;28;20050;-66
2022/12/22 10:25:30;;;;;;;8.02;2.15;;;;;;;;;;4998880;28;21837;-63
2022/12/22 10:27:58;;;;;;;5.53;2.45;;;;;;;;;;4998992;28;20061;-66
2022/12/22 10:30:30;;;;;;;8.07;2.58;;;;;;;;;;5002594;28;20050;-64
2022/12/22 10:33:09;;;;;;;11.82;2.47;;;;;;;;;;5000853;28;20049;-64
2022/12/22 10:35:55;;;;;;;9.38;2.60;;;;;;;;;;4999260;28;20758;-63
2022/12/22 10:38:32;;;;;;;10.18;2.47;;;;;;;;;;4991313;28;20058;-61
2022/12/22 10:41:14;;;;;;;8.55;2.55;;;;;;;;;;4998154;28;20050;-64
2022/12/22 10:43:50;;;;;;;8.05;2.28;;;;;;;;;;4995040;28;20049;-64
2022/12/22 10:46:18;;;;;;;9.38;2.33;;;;;;;;;;4997208;28;20045;-65
2022/12/22 10:48:44;;;;;;;8.02;2.70;;;;;;;;;;4999760;28;20054;-63
2022/12/22 10:51:13;;;;;;;7.65;2.22;;;;;;;;;;5000949;28;20581;-64
2022/12/22 10:53:46;;;;;;;7.93;2.25;;;;;;;;;;4995371;28;20448;-62
2022/12/22 10:56:23;;;;;;;9.65;2.45;;;;;;;;;;5001737;28;20050;-64
2022/12/22 10:59:00;;;;;;;12.23;1.95;;;;;;;;;;4979463;28;20049;-62
2022/12/22 11:01:34;;;;;;;15.55;2.75;;;;;;;;;;4997583;28;20050;-66
2022/12/22 11:04:24;;;;;;;10.68;2.28;;;;;;;;;;4981075;28;20077;-65
2022/12/22 11:06:52;;;;;;;8.07;2.83;;;;;;;;;;4995143;28;20119;-63
2022/12/22 11:09:18;;;;;;;10.18;3.17;;;;;;;;;;4996621;28;20038;-63
2022/12/22 11:11:52;;;;;;;9.98;3.15;;;;;;;;;;4996512;28;20046;-63
2022/12/22 11:14:18;;;;;;;6.45;2.70;;;;;;;;;;5002572;28;20404;-63
2022/12/22 11:17:06;;;;;;;7.63;2.88;;;;;;;;;;4998079;28;20042;-64
2022/12/22 11:19:49;;;;;;;10.15;2.67;;;;;;;;;;4992077;28;20140;-62
2022/12/22 11:22:45;;;;;;;6.72;2.20;;;;;;;;;;4998387;28;20084;-63
2022/12/22 11:25:14;;;;;;;10.93;2.85;;;;;;;;;;4982636;28;20665;-65
2022/12/22 11:27:43;;;;;;;6.88;2.88;;;;;;;;;;4981048;28;20099;-61
2022/12/22 11:30:14;;;;;;;7.78;2.03;;;;;;;;;;4989912;28;20088;-65
2022/12/22 11:32:52;;;;;;;4.20;1.55;;;;;;;;;;4972080;28;20081;-66
2022/12/22 11:35:25;;;;;;;3.95;1.23;;;;;;;;;;4993357;28;20642;-61
2022/12/22 11:37:57;;;;;;;5.25;1.60;;;;;;;;;;4988320;28;20049;-62
2022/12/22 11:40:37;;;;;;;3.72;1.23;;;;;;;;;;4996139;28;20104;-64
2022/12/22 11:43:21;;;;;;;3.72;1.52;;;;;;;;;;4963448;28;20057;-62
2022/12/22 11:46:23;;;;;;;3.85;1.35;;;;;;;;;;4995236;28;20086;-64
2022/12/22 11:49:04;;;;;;;2.53;1.00;;;;;;;;;;4966229;28;20053;-62
2022/12/22 11:51:30;;;;;;;3.08;1.25;;;;;;;;;;4993448;28;20053;-61
2022/12/22 11:54:02;;;;;;;3.67;1.15;;;;;;;;;;5005782;28;20072;-63
2022/12/22 11:56:34;;;;;;;6.03;1.08;;;;;;;;;;5002837;28;20045;-66
2022/12/22 11:59:15;;;;;;;3.22;0.80;;;;;;;;;;5004610;28;20065;-61
2022/12/22 12:01:47;;;;;;;3.22;1.17;;;;;;;;;;4997952;28;20406;-63
2022/12/22 12:04:19;;;;;;;2.67;1.45;;;;;;;;;;5002482;28;20485;-61
2022/12/22 12:06:57;;;;;;;4.47;1.30;;;;;;;;;;4993564;28;20534;-61
2022/12/22 12:09:44;;;;;;;3.88;1.30;;;;;;;;;;5000297;28;20049;-61
2022/12/22 12:12:34;;;;;;;7.10;1.60;;;;;;;;;;4999250;28;20451;-62
2022/12/22 12:15:23;;;;;;;10.63;2.35;;;;;;;;;;5001595;28;20157;-64
2022/12/22 12:18:01;;;;;;;5.35;1.50;;;;;;;;;;4999484;28;20152;-64
2022/12/22 12:20:52;;;;;;;7.07;2.28;;;;;;;;;;5004098;28;20049;-64
2022/12/22 12:23:33;;;;;;;5.38;2.10;;;;;;;;;;5007280;28;20115;-61
2022/12/22 12:26:26;;;;;;;5.90;1.40;;;;;;;;;;4998453;28;20042;-63
2022/12/22 12:29:19;;;;;;;4.30;1.45;;;;;;;;;;5002101;28;20081;-71
2022/12/22 12:31:59;;;;;;;3.90;1.20;;;;;;;;;;4999710;28;20525;-67
2022/12/22 12:34:29;;;;;;;6.95;1.35;;;;;;;;;;4994722;28;20204;-64
2022/12/22 12:37:11;;;;;;;3.97;1.33;;;;;;;;;;5004344;28;20049;-65
2022/12/22 12:39:56;;;;;;;5.28;1.77;;;;;;;;;;4974769;28;20042;-64
2022/12/22 12:42:34;;;;;;;3.08;1.20;;;;;;;;;;4999522;28;20057;-64
2022/12/22 12:45:01;;;;;;;4.43;1.30;;;;;;;;;;5006537;28;20502;-62
2022/12/22 12:47:30;;;;;;;4.85;1.52;;;;;;;;;;5006773;28;20042;-62
2022/12/22 12:50:34;;;;;;;6.38;1.25;;;;;;;;;;4997996;28;20117;-63
2022/12/22 12:53:05;;;;;;;6.20;1.60;;;;;;;;;;4993891;28;20058;-67
2022/12/22 12:55:38;;;;;;;4.65;2.10;;;;;;;;;;4979731;28;20054;-63
2022/12/22 12:58:08;;;;;;;6.75;2.90;;;;;;;;;;5001846;28;20100;-63
2022/12/22 13:00:34;;;;;;;6.80;3.00;;;;;;;;;;4998693;28;20045;-65
2022/12/22 13:03:11;;;;;;;2.65;1.17;;;;;;;;;;4999375;28;20053;-62
2022/12/22 13:05:53;;;;;;;5.47;1.20;;;;;;;;;;5007001;28;20132;-61
2022/12/22 13:08:22;;;;;;;7.10;1.27;;;;;;;;;;4992077;28;20094;-63
2022/12/22 13:11:14;;;;;;;5.35;1.30;;;;;;;;;;4997842;28;20058;-61
2022/12/22 13:13:40;;;;;;;2.47;1.00;;;;;;;;;;4992418;28;20048;-63
2022/12/22 13:16:06;;;;;;;5.65;1.75;;;;;;;;;;4998299;28;20046;-62
2022/12/22 13:18:44;;;;;;;4.30;1.30;;;;;;;;;;5004716;28;20052;-64
2022/12/22 13:21:16;;;;;;;2.88;1.35;;;;;;;;;;5001933;28;20081;-63
2022/12/22 13:23:59;;;;;;;3.70;1.45;;;;;;;;;;5003251;28;20108;-65
2022/12/22 13:26:31;;;;;;;2.25;1.10;;;;;;;;;;5004463;28;20081;-67
2022/12/22 13:29:00;;;;;;;6.45;1.48;;;;;;;;;;4997604;28;20124;-63
2022/12/22 13:31:43;;;;;;;3.10;1.30;;;;;;;;;;4998103;28;20052;-63
2022/12/22 13:34:32;;;;;;;5.63;1.33;;;;;;;;;;4980300;28;20140;-63
2022/12/22 13:37:05;;;;;;;5.35;1.30;;;;;;;;;;4996780;28;20039;-62
2022/12/22 13:39:31;;;;;;;6.60;1.27;;;;;;;;;;5002537;28;20042;-64
2022/12/22 13:41:57;;;;;;;4.13;1.17;;;;;;;;;;4985997;28;20416;-64
2022/12/22 13:44:32;;;;;;;4.85;1.60;;;;;;;;;;5003810;28;20069;-65
2022/12/22 13:47:12;;;;;;;4.88;1.60;;;;;;;;;;5004262;28;20057;-62
2022/12/22 13:49:40;;;;;;;5.40;1.75;;;;;;;;;;4997106;28;20132;-64
2022/12/22 13:52:13;;;;;;;4.05;1.27;;;;;;;;;;4999846;28;20502;-65
2022/12/22 13:54:40;;;;;;;4.93;1.20;;;;;;;;;;5002803;28;20061;-62
2022/12/22 13:57:16;;;;;;;5.15;1.67;;;;;;;;;;5000499;28;20052;-65
2022/12/22 13:59:43;;;;;;;2.78;1.20;;;;;;;;;;4997820;28;20046;-61
2022/12/22 14:02:10;;;;;;;3.13;1.30;;;;;;;;;;4999661;28;20112;-62
2022/12/22 14:04:41;;;;;;;2.90;1.23;;;;;;;;;;5005961;28;20041;-66
2022/12/22 14:07:14;;;;;;;2.97;1.25;;;;;;;;;;5001433;28;20108;-63
2022/12/22 14:09:53;;;;;;;4.60;1.50;;;;;;;;;;5002304;28;20721;-61
2022/12/22 14:12:22;;;;;;;4.45;1.10;;;;;;;;;;5001484;28;20060;-64
2022/12/22 14:14:51;;;;;;;4.03;1.27;;;;;;;;;;4990841;28;20078;-61
2022/12/22 14:17:25;;;;;;;5.75;1.52;;;;;;;;;;4997967;28;20041;-62
2022/12/22 14:19:56;;;;;;;5.45;1.20;;;;;;;;;;4994935;28;20081;-63
2022/12/22 14:22:27;;;;;;;4.65;1.42;;;;;;;;;;4996440;28;20062;-67
2022/12/22 14:24:57;;;;;;;3.30;1.40;;;;;;;;;;4989940;28;20116;-63
2022/12/22 14:27:37;;;;;;;3.78;1.33;;;;;;;;;;4996307;28;20088;-62
2022/12/22 14:30:22;;;;;;;6.15;1.55;;;;;;;;;;4997507;28;20068;-72
2022/12/22 14:32:50;;;;;;;5.57;1.45;;;;;;;;;;5001091;28;20078;-63
2022/12/22 14:35:19;;;;;;;2.42;1.00;;;;;;;;;;4999073;28;20088;-64
2022/12/22 14:37:51;;;;;;;1.90;1.00;;;;;;;;;;4996194;28;20057;-64
2022/12/22 14:40:39;;;;;;;3.42;1.10;;;;;;;;;;4996772;28;20068;-63
2022/12/22 14:43:27;;;;;;;3.08;1.17;;;;;;;;;;4997256;28;21890;-62
2022/12/22 14:46:03;;;;;;;3.60;1.08;;;;;;;;;;4997393;28;20046;-63
2022/12/22 14:48:33;;;;;;;5.35;1.20;;;;;;;;;;4998701;28;20046;-61
2022/12/22 14:51:00;;;;;;;2.42;1.00;;;;;;;;;;4999823;28;20042;-61
2022/12/22 14:53:49;;;;;;;4.15;1.38;;;;;;;;;;4997985;28;20046;-61
2022/12/22 14:56:16;;;;;;;1.48;1.00;;;;;;;;;;5003269;28;20163;-68
2022/12/22 14:58:44;;;;;;;5.40;1.50;;;;;;;;;;5002744;28;20143;-64
2022/12/22 15:01:20;;;;;;;3.25;1.23;;;;;;;;;;4992895;28;20100;-64
2022/12/22 15:04:15;;;;;;;2.05;1.10;;;;;;;;;;5000420;28;20528;-61
2022/12/22 15:06:44;;;;;;;;;;;;;;;;;;5000434;28;20075;-66
2022/12/22 15:09:13;;;;;;;7.82;1.20;;;;;;;;;;4998761;28;19925;-62
2022/12/22 15:11:46;;;;;;;2.08;1.13;;;;;;;;;;5003360;28;20045;-66
2022/12/22 15:14:21;;;;;;;6.60;1.05;;;;;;;;;;4994327;28;20050;-63
2022/12/22 15:16:47;;;;;;;3.05;1.20;;;;;;;;;;4984937;28;20041;-62
2022/12/22 15:19:15;;;;;;;7.60;1.05;;;;;;;;;;5002620;28;20049;-63
2022/12/22 15:21:41;;;;;;;2.78;1.00;;;;;;;;;;5003005;28;20038;-62
2022/12/22 15:24:14;;;;;;;5.88;1.10;;;;;;;;;;5001276;28;20670;-63
2022/12/22 15:26:41;;;;;;;2.88;1.35;;;;;;;;;;4995663;28;20143;-63
2022/12/22 15:29:07;;;;;;;1.95;0.90;;;;;;;;;;5003254;28;20409;-64
2022/12/22 15:31:33;;;;;;;4.82;1.30;;;;;;;;;;5003006;28;20041;-65
2022/12/22 15:34:03;;;;;;;3.25;1.10;;;;;;;;;;5004738;28;20136;-64
2022/12/22 15:36:29;;;;;;;4.93;1.08;;;;;;;;;;5003711;28;20531;-63
2022/12/22 15:38:57;;;;;;;1.52;1.00;;;;;;;;;;5003179;28;20141;-62
2022/12/22 15:41:23;;;;;;;2.03;1.00;;;;;;;;;;4981365;28;20427;-64
2022/12/22 15:43:49;;;;;;;1.77;0.90;;;;;;;;;;5002950;28;20462;-63
2022/12/22 15:46:17;;;;;;;2.20;1.15;;;;;;;;;;4999595;28;20132;-63
2022/12/22 15:48:44;;;;;;;4.13;1.27;;;;;;;;;;5002339;28;20052;-62
2022/12/22 15:51:19;;;;;;;2.95;1.05;;;;;;;;;;5000975;28;20100;-63
2022/12/22 15:53:46;;;;;;;2.70;1.30;;;;;;;;;;5003638;28;20534;-63
2022/12/22 15:56:18;;;;;;;2.35;1.15;;;;;;;;;;4984436;28;20068;-61
2022/12/22 15:58:45;;;;;;;4.43;1.30;;;;;;;;;;4999497;28;20045;-65
2022/12/22 16:01:11;;;;;;;2.00;1.23;;;;;;;;;;4999136;28;20148;-64
2022/12/22 16:03:38;;;;;;;4.03;1.40;;;;;;;;;;4992434;28;20132;-64
2022/12/22 16:06:05;;;;;;;4.97;1.05;;;;;;;;;;5005467;28;20568;-66
2022/12/22 16:08:37;;;;;;;6.07;1.50;;;;;;;;;;5002834;28;20046;-62
2022/12/22 16:11:05;;;;;;;4.65;1.35;;;;;;;;;;4985010;28;20054;-63
2022/12/22 16:13:31;;;;;;;3.70;1.23;;;;;;;;;;4996653;28;20872;-62
2022/12/22 16:15:58;;;;;;;7.90;1.10;;;;;;;;;;5003616;28;20042;-62
2022/12/22 16:18:24;;;;;;;4.55;1.30;;;;;;;;;;5003556;28;20054;-69
2022/12/22 16:20:50;;;;;;;4.38;1.30;;;;;;;;;;5006939;28;20088;-63
2022/12/22 16:23:21;;;;;;;5.15;1.20;;;;;;;;;;5002906;28;20423;-64
2022/12/22 16:25:47;;;;;;;1.80;1.20;;;;;;;;;;5004857;28;20049;-63
2022/12/22 16:28:20;;;;;;;5.75;1.23;;;;;;;;;;5010480;28;20042;-68
2022/12/22 16:30:46;;;;;;;7.15;1.17;;;;;;;;;;5010401;28;20195;-61
2022/12/22 16:33:14;;;;;;;3.45;1.30;;;;;;;;;;5007207;28;20046;-63
2022/12/22 16:35:40;;;;;;;3.25;1.20;;;;;;;;;;5006046;28;20045;-61
2022/12/22 16:38:07;;;;;;;2.03;1.00;;;;;;;;;;5004011;28;20034;-66
2022/12/22 16:40:40;;;;;;;3.50;1.08;;;;;;;;;;5004092;28;20046;-62
2022/12/22 16:43:20;;;;;;;3.17;1.17;;;;;;;;;;4997425;28;20360;-60
2022/12/22 16:45:47;;;;;;;4.88;1.40;;;;;;;;;;5003158;28;20309;-62
2022/12/22 16:48:43;;;;;;;4.60;1.10;;;;;;;;;;5004331;28;20623;-59
2022/12/22 16:51:35;;;;;;;4.97;1.30;;;;;;;;;;5006032;28;20053;-62
2022/12/22 16:54:02;;;;;;;2.53;1.20;;;;;;;;;;5002951;28;20054;-64
2022/12/22 16:56:29;;;;;;;2.75;1.20;;;;;;;;;;5006894;28;20042;-62
2022/12/22 16:58:55;;;;;;;3.38;1.40;;;;;;;;;;5003677;28;20054;-64
2022/12/22 17:01:38;;;;;;;7.82;1.35;;;;;;;;;;4999091;28;20132;-59
2022/12/22 17:04:12;;;;;;;2.88;1.25;;;;;;;;;;5002432;28;20054;-62
2022/12/22 17:06:39;;;;;;;3.78;1.10;;;;;;;;;;5001072;28;20110;-64
2022/12/22 17:09:14;;;;;;;3.13;1.25;;;;;;;;;;4976903;28;20057;-66
2022/12/22 17:11:40;;;;;;;5.55;1.30;;;;;;;;;;5000766;28;20041;-65
2022/12/22 17:14:15;;;;;;;3.47;1.30;;;;;;;;;;4998749;28;20046;-63
2022/12/22 17:16:41;;;;;;;4.65;1.30;;;;;;;;;;5003742;28;20060;-59
2022/12/22 17:19:10;;;;;;;2.15;1.00;;;;;;;;;;4985210;28;20050;-62
2022/12/22 17:21:36;;;;;;;2.72;1.10;;;;;;;;;;5000995;28;20058;-61
2022/12/22 17:24:03;;;;;;;2.45;1.15;;;;;;;;;;5005553;28;20061;-61
2022/12/22 17:26:32;;;;;;;3.90;1.33;;;;;;;;;;5005903;28;20050;-61
2022/12/22 17:28:58;;;;;;;6.05;1.15;;;;;;;;;;5002678;28;20051;-61
2022/12/22 17:31:25;;;;;;;2.70;1.05;;;;;;;;;;5004447;28;20038;-63
2022/12/22 17:33:52;;;;;;;6.22;1.30;;;;;;;;;;5001308;28;20665;-61
2022/12/22 17:36:34;;;;;;;4.80;1.25;;;;;;;;;;5000538;28;21141;-64
2022/12/22 17:39:02;;;;;;;1.50;1.00;;;;;;;;;;4998051;28;20049;-63
2022/12/22 17:41:28;;;;;;;3.30;0.90;;;;;;;;;;4986894;28;20054;-65
2022/12/22 17:43:54;;;;;;;4.38;1.15;;;;;;;;;;5002578;28;20115;-64
2022/12/22 17:46:21;;;;;;;4.47;1.50;;;;;;;;;;4985369;28;20640;-64
2022/12/22 17:48:48;;;;;;;4.38;1.23;;;;;;;;;;4999901;28;20050;-62
2022/12/22 17:51:27;;;;;;;8.57;1.10;;;;;;;;;;5007830;28;20053;-63
2022/12/22 17:53:55;;;;;;;3.22;1.08;;;;;;;;;;5001054;28;20259;-68
2022/12/22 17:56:23;;;;;;;3.92;1.45;;;;;;;;;;5005024;28;20069;-65
2022/12/22 17:58:50;;;;;;;3.70;1.20;;;;;;;;;;5003744;28;20400;-63
2022/12/22 18:01:25;;;;;;;8.88;1.40;;;;;;;;;;5008331;28;20057;-60
2022/12/22 18:03:51;;;;;;;5.25;0.95;;;;;;;;;;5001833;28;20080;-64
2022/12/22 18:06:19;;;;;;;3.35;1.20;;;;;;;;;;4997913;28;20097;-63
2022/12/22 18:08:46;;;;;;;4.35;1.25;;;;;;;;;;5002771;28;20409;-63
2022/12/22 18:11:13;;;;;;;3.88;1.73;;;;;;;;;;5004525;28;20099;-63
2022/12/22 18:13:39;;;;;;;5.40;1.40;;;;;;;;;;5003117;28;20790;-62
2022/12/22 18:16:06;;;;;;;5.38;1.10;;;;;;;;;;4984067;28;20092;-60
2022/12/22 18:18:33;;;;;;;3.55;1.70;;;;;;;;;;4995754;28;20057;-62
2022/12/22 18:20:58;;;;;;;3.75;1.13;;;;;;;;;;5003145;28;20489;-63
2022/12/22 18:23:30;;;;;;;2.70;1.20;;;;;;;;;;5001316;28;20038;-64
2022/12/22 18:25:56;;;;;;;2.80;1.27;;;;;;;;;;5003010;28;20057;-61
2022/12/22 18:28:23;;;;;;;5.28;1.63;;;;;;;;;;4991557;28;20053;-64
2022/12/22 18:30:49;;;;;;;2.90;1.20;;;;;;;;;;4983187;28;20310;-62
2022/12/22 18:33:15;;;;;;;4.20;1.27;;;;;;;;;;4994241;28;20054;-64
2022/12/22 18:35:42;;;;;;;3.72;1.48;;;;;;;;;;4995612;28;20464;-63
2022/12/22 18:38:40;;;;;;;4.65;1.40;;;;;;;;;;5000178;28;20103;-63
2022/12/22 18:41:06;;;;;;;3.38;1.45;;;;;;;;;;4969505;28;20140;-63
2022/12/22 18:43:32;;;;;;;6.15;1.30;;;;;;;;;;4997630;28;20141;-63
2022/12/22 18:45:58;;;;;;;3.25;1.63;;;;;;;;;;4996782;28;20189;-62
2022/12/22 18:48:24;;;;;;;5.35;1.90;;;;;;;;;;4976559;28;20042;-67